• Join FlightAware (Why Join?)
  • Login
  • US Flag 
01:20PM EDT


 

Airport Tracker/Info


-or-


 

Live Flight TrackerFlight Track Log ✈ UAL4191 ✈ 30-Jul-2013 ✈ KEWR - KBNA

Flight Track Log - Related Links

Times and Time Zones

All times are in EDT time to prevent confusion due to time zone crossing. See the UAL4191 flight status page for this flight to view local times or setup timezone preferences in your user account.

Time Position Orientation Groundspeed Altitude Reporting Facility
EDT Latitude Longitude Course Direction KTS MPH feet Rate Location/Type
08:00PM 40.6667 -74.1833 270° West 159 183 700  Level New York TRACON
08:01PM 40.6333 -74.2000 201° Southwest 192 221 2,300 1,860 Climbing New York TRACON
08:03PM 40.6833 -74.6943 270° West  Level FlightAware Approximate
08:03PM 40.6119 -74.4014 262° West 245 282 6,700  Level New York Center
08:04PM 40.6834 -74.8262 270° West  Level FlightAware Approximate
08:04PM 40.6072 -74.4858 266° West 259 298 8,500  Level New York Center
08:05PM 40.6833 -74.9581 270° West  Level FlightAware Approximate
08:05PM 40.6122 -74.5956 273° West 274 315 10,700  Level New York Center
08:06PM 40.6275 -74.6975 281° West 280 322 11,700 960 Climbing New York Center
08:07PM 40.6464 -74.8164 282° West 319 367 12,700 900 Climbing New York Center
08:08PM 40.6631 -74.9403 280° West 338 389 13,600 900 Climbing New York Center
08:09PM 40.6817 -75.0619 281° West 343 395 14,600 900 Climbing New York Center
08:10PM 40.6997 -75.1917 280° West 353 406 15,500 900 Climbing New York Center
08:11PM 40.6761 -75.3189 256° West 353 406 16,500 900 Climbing New York Center
08:12PM 40.6544 -75.4458 257° West 353 406 17,400 1,020 Climbing New York Center
08:13PM 40.6083 -75.5575 241° Southwest 353 406 18,600 1,320 Climbing New York Center
08:14PM 40.5689 -75.6558 242° Southwest 353 406 20,100 1,620 Climbing New York Center
08:15PM 40.5267 -75.7650 243° Southwest 343 395 21,800 1,620 Climbing New York Center
08:16PM 40.4869 -75.8686 243° Southwest 331 381 23,500 1,800 Climbing New York Center
08:17PM 40.4361 -75.9847 240° Southwest 336 387 25,400 1,800 Climbing New York Center
08:18PM 40.3983 -76.0800 243° Southwest 331 381 27,100 1,620 Climbing New York Center
08:19PM 40.3606 -76.1778 243° Southwest 311 358 28,800 1,320 Climbing New York Center
08:20PM 40.3231 -76.2703 242° Southwest 300 345 29,800 900 Climbing New York Center
08:21PM 40.2828 -76.3706 242° Southwest 295 339 30,600 780 Climbing New York Center
08:22PM 40.2403 -76.4731 242° Southwest 307 353 31,400 720 Climbing New York Center
08:23PM 40.1994 -76.5839 244° Southwest 326 375 32,100 660 Climbing New York Center
08:25PM 40.1181 -76.7850 242° Southwest 331 381 33,500 720 Climbing Washington Center
08:26PM 40.0628 -76.9142 241° Southwest 346 398 34,300 780 Climbing Washington Center
08:27PM 40.0156 -77.0300 242° Southwest 359 413 35,100 720 Climbing Washington Center
08:28PM 39.9661 -77.1481 241° Southwest 364 419 35,800 420 Climbing Washington Center
08:29PM 39.9186 -77.2661 242° Southwest 364 419 36,000 60 Climbing Washington Center
08:30PM 39.8692 -77.3892 242° Southwest 369 425 36,000  Level Washington Center
08:31PM 39.8150 -77.5147 241° Southwest 383 441 36,000  Level Washington Center
08:32PM 39.7631 -77.6403 242° Southwest 388 447 36,000  Level Washington Center
08:33PM 39.7108 -77.7656 242° Southwest 388 447 36,000  Level Washington Center
08:34PM 39.6583 -77.8933 242° Southwest 393 452 36,000  Level Washington Center
08:35PM 39.6103 -78.0078 241° Southwest 393 452 36,000  Level Washington Center
08:36PM 39.5556 -78.1350 241° Southwest 398 458 36,000  Level Washington Center
08:37PM 39.5050 -78.2569 242° Southwest 398 458 36,000  Level Washington Center
08:38PM 39.4544 -78.3789 242° Southwest 393 452 36,000  Level Washington Center
08:39PM 39.4036 -78.4950 240° Southwest 386 444 36,000  Level Washington Center
08:40PM 39.3550 -78.6058 240° Southwest 374 430 36,000  Level Washington Center
08:41PM 39.3064 -78.7164 240° Southwest 367 422 36,000  Level Washington Center
08:42PM 39.2597 -78.8244 241° Southwest 357 411 36,000  Level Washington Center
08:43PM 39.2233 -78.9381 248° West 351 404 36,000  Level Washington Center
08:44PM 39.1886 -79.0597 250° West 357 411 36,000  Level Washington Center
08:45PM 39.1517 -79.1864 249° West 370 426 36,000  Level Washington Center
08:46PM 39.1119 -79.3261 250° West 381 438 36,000  Level Washington Center
08:47PM 39.0742 -79.4606 250° West 387 445 36,000  Level Washington Center
08:48PM 39.0350 -79.5761 246° West 392 451 36,000  Level Washington Center
08:49PM 38.9969 -79.7131 250° West 404 465 36,000  Level Washington Center
08:50PM 38.9592 -79.8469 250° West 404 465 36,000  Level Washington Center
08:51PM 38.9111 -79.9853 246° West 389 448 36,000  Level Indianapolis Center
08:52PM 38.8706 -80.1156 248° West 386 444 36,000  Level Indianapolis Center
08:53PM 38.8328 -80.2403 249° West 376 433 36,000  Level Indianapolis Center
08:54PM 38.7956 -80.3644 249° West 374 430 36,000  Level Indianapolis Center
08:55PM 38.7572 -80.4864 248° West 370 426 36,000  Level Indianapolis Center
08:56PM 38.7194 -80.6067 248° West 366 421 36,000  Level Indianapolis Center
08:57PM 38.6817 -80.7269 248° West 363 418 36,000  Level Indianapolis Center
08:58PM 38.6444 -80.8467 248° West 362 417 36,000  Level Indianapolis Center
08:59PM 38.5997 -80.9903 248° West 363 418 36,000  Level Indianapolis Center
09:00PM 38.5603 -81.1125 248° West 368 423 36,000  Level Indianapolis Center
09:01PM 38.5203 -81.2369 248° West 375 432 36,000  Level Indianapolis Center
09:02PM 38.4792 -81.3633 247° West 379 436 36,000  Level Indianapolis Center
09:03PM 38.4389 -81.4906 248° West 381 438 36,000  Level Indianapolis Center
09:04PM 38.3983 -81.6178 248° West 383 441 36,000  Level Indianapolis Center
09:05PM 38.3567 -81.7453 247° West 386 444 36,000  Level Indianapolis Center
09:06PM 38.3194 -81.8742 250° West 387 445 36,000  Level Indianapolis Center
09:07PM 38.2839 -82.0031 251° West 386 444 36,000  Level Indianapolis Center
09:08PM 38.2472 -82.1322 250° West 388 447 36,000  Level Indianapolis Center
09:09PM 38.2100 -82.2619 250° West 389 448 36,000  Level Indianapolis Center
09:10PM 38.1733 -82.3919 250° West 390 449 36,000  Level Indianapolis Center
09:11PM 38.1300 -82.5450 250° West 391 450 36,000  Level Indianapolis Center
09:12PM 38.0933 -82.6739 250° West 390 449 36,000  Level Indianapolis Center
09:13PM 38.0558 -82.8047 250° West 392 451 36,000  Level Indianapolis Center
09:14PM 38.0186 -82.9364 250° West 397 457 36,000  Level Indianapolis Center
09:15PM 37.9803 -83.0664 250° West 395 455 36,000  Level Indianapolis Center
09:16PM 37.9417 -83.1972 250° West 396 456 36,000 -360 Level Indianapolis Center
09:17PM 37.8878 -83.3442 245° Southwest 398 458 35,300 -960 Descending Indianapolis Center
09:18PM 37.8244 -83.4594 235° Southwest 398 458 34,100 -660 Descending Indianapolis Center
09:19PM 37.7631 -83.5733 236° Southwest 393 452 34,000 -60 Descending Indianapolis Center
09:21PM 37.7039 -83.6836 236° Southwest 381 438 34,000  Level Indianapolis Center
09:22PM 37.6436 -83.7961 236° Southwest 386 444 34,000  Level Indianapolis Center
09:23PM 37.5806 -83.9103 235° Southwest 394 453 34,000  Level Indianapolis Center
09:24PM 37.5169 -84.0272 236° Southwest 402 463 34,000 -420 Level Indianapolis Center
09:25PM 37.4539 -84.1436 236° Southwest 404 465 33,200 -1,320 Descending Indianapolis Center
09:26PM 37.3783 -84.2803 235° Southwest 406 467 31,400 -1,560 Descending Indianapolis Center
09:27PM 37.3153 -84.3961 236° Southwest 403 464 30,100 -720 Descending Indianapolis Center
09:28PM 37.2522 -84.5081 235° Southwest 394 453 30,000 -780 Descending Indianapolis Center
09:29PM 37.1903 -84.6189 235° Southwest 390 449 28,600 -1,680 Descending Indianapolis Center
09:30PM 37.1264 -84.7344 235° Southwest 402 463 26,600 -1,800 Descending Indianapolis Center
09:31PM 37.0578 -84.8572 235° Southwest 428 493 25,000 -960 Descending Indianapolis Center
09:32PM 36.9919 -84.9767 235° Southwest 424 488 24,700 -600 Descending Indianapolis Center
09:33PM 36.9225 -85.0989 235° Southwest 431 496 23,800 -960 Descending Indianapolis Center
09:34PM 36.8533 -85.2200 235° Southwest 431 496 22,800 -1,500 Descending Indianapolis Center
09:35PM 36.7714 -85.3658 235° Southwest 429 494 20,800 -1,920 Descending Indianapolis Center
09:36PM 36.7128 -85.4797 237° Southwest 398 458 18,900 -1,860 Descending Indianapolis Center
09:37PM 36.6608 -85.5906 240° Southwest 377 434 17,100 -1,920 Descending Indianapolis Center
09:38PM 36.6114 -85.6944 239° Southwest 355 409 15,100 -1,980 Descending Indianapolis Center
09:39PM 36.5631 -85.7964 239° Southwest 346 398 13,100 -1,980 Descending Indianapolis Center
09:40PM 36.5158 -85.8978 240° Southwest 343 395 11,100 -1,560 Descending Indianapolis Center
09:41PM 36.4667 -85.9983 239° Southwest 339 390 10,000 -600 Descending Indianapolis Center
09:42PM 36.4231 -86.0892 239° Southwest 307 353 10,000 -180 Level Indianapolis Center
09:43PM 36.3833 -86.1750 240° Southwest 287 330 9,700 -840 Descending Indianapolis Center
09:44PM 36.3456 -86.2514 238° Southwest 262 302 8,300 -1,560 Descending Indianapolis Center
09:45PM 36.3039 -86.3397 240° Southwest 257 296 6,500 -1,140 Descending Memphis Center
09:46PM 36.2686 -86.4083 237° Southwest 252 290 6,000 -300 Descending Memphis Center
09:47PM 36.2375 -86.4742 240° Southwest 257 296 6,000  Level Memphis Center
09:48PM 36.1892 -86.5278 222° Southwest 250 288 6,000 -300 Level Memphis Center
09:49PM 36.1314 -86.5536 200° South 230 265 5,500 -720 Descending Memphis Center
09:50PM 36.0736 -86.5744 196° South 218 251 4,600 -780 Descending Memphis Center
09:51PM 36.0203 -86.6025 203° Southwest 218 251 4,000 -300 Descending Memphis Center
09:52PM 35.9608 -86.6308 201° Southwest 218 251 4,000 -300 Level Memphis Center
09:54PM 36.0000 -86.7333 295° West 184 212 3,100 -600 Descending Nashville TRACON
09:55PM 36.0500 -86.7167 15° North 138 159 2,000 -900 Descending Nashville TRACON
09:56PM 36.0833 -86.7000 22° Northeast 140 161 1,400 -720 Descending Nashville TRACON